sensor_id;sensor_type;location;lat;lon;timestamp;pressure;altitude;pressure_sealevel;temperature;humidity
64602;BME280;68371;42.630;23.192;2023-12-20T00:00:29;92607.38;;;-1.54;84.69
64602;BME280;68371;42.630;23.192;2023-12-20T00:02:56;92605.56;;;-1.53;84.64
64602;BME280;68371;42.630;23.192;2023-12-20T00:05:24;92593.97;;;-1.61;84.55
64602;BME280;68371;42.630;23.192;2023-12-20T00:07:51;92611.25;;;-1.51;84.29
64602;BME280;68371;42.630;23.192;2023-12-20T00:10:18;92598.88;;;-1.59;83.47
64602;BME280;68371;42.630;23.192;2023-12-20T00:12:44;92598.34;;;-1.62;83.77
64602;BME280;68371;42.630;23.192;2023-12-20T00:15:10;92601.66;;;-1.71;84.06
64602;BME280;68371;42.630;23.192;2023-12-20T00:17:37;92598.03;;;-1.75;84.49
64602;BME280;68371;42.630;23.192;2023-12-20T00:20:04;92597.78;;;-1.79;84.78
64602;BME280;68371;42.630;23.192;2023-12-20T00:22:33;92596.72;;;-1.83;84.68
64602;BME280;68371;42.630;23.192;2023-12-20T00:25:00;92590.81;;;-1.84;84.24
64602;BME280;68371;42.630;23.192;2023-12-20T00:27:27;92589.00;;;-1.88;84.13
64602;BME280;68371;42.630;23.192;2023-12-20T00:29:53;92588.47;;;-1.90;84.86
64602;BME280;68371;42.630;23.192;2023-12-20T00:32:20;92577.41;;;-1.86;84.66
64602;BME280;68371;42.630;23.192;2023-12-20T00:34:47;92569.94;;;-1.87;84.41
64602;BME280;68371;42.630;23.192;2023-12-20T00:37:13;92569.44;;;-1.84;84.37
64602;BME280;68371;42.630;23.192;2023-12-20T00:39:41;92556.56;;;-1.79;83.94
64602;BME280;68371;42.630;23.192;2023-12-20T00:42:09;92551.16;;;-1.88;84.02
64602;BME280;68371;42.630;23.192;2023-12-20T00:44:35;92552.44;;;-1.85;83.88
64602;BME280;68371;42.630;23.192;2023-12-20T00:47:03;92549.59;;;-1.89;83.95
64602;BME280;68371;42.630;23.192;2023-12-20T00:49:30;92552.16;;;-1.89;83.72
64602;BME280;68371;42.630;23.192;2023-12-20T00:51:57;92549.84;;;-1.85;84.17
64602;BME280;68371;42.630;23.192;2023-12-20T00:54:23;92554.25;;;-1.86;84.03
64602;BME280;68371;42.630;23.192;2023-12-20T00:56:52;92548.81;;;-1.89;83.82
64602;BME280;68371;42.630;23.192;2023-12-20T00:59:19;92543.41;;;-1.98;83.73
64602;BME280;68371;42.630;23.192;2023-12-20T01:01:46;92544.69;;;-2.00;83.91
64602;BME280;68371;42.630;23.192;2023-12-20T01:04:12;92543.16;;;-1.96;83.55
64602;BME280;68371;42.630;23.192;2023-12-20T01:06:39;92535.66;;;-2.03;83.82
64602;BME280;68371;42.630;23.192;2023-12-20T01:09:05;92532.03;;;-2.07;83.62
64602;BME280;68371;42.630;23.192;2023-12-20T01:11:32;92537.19;;;-2.07;83.80
64602;BME280;68371;42.630;23.192;2023-12-20T01:14:01;92526.63;;;-2.06;83.47
64602;BME280;68371;42.630;23.192;2023-12-20T01:16:28;92525.63;;;-2.05;83.04
64602;BME280;68371;42.630;23.192;2023-12-20T01:18:55;92512.22;;;-2.07;83.08
64602;BME280;68371;42.630;23.192;2023-12-20T01:21:21;92529.41;;;-2.28;83.26
64602;BME280;68371;42.630;23.192;2023-12-20T01:23:48;92527.84;;;-2.39;84.20
64602;BME280;68371;42.630;23.192;2023-12-20T01:26:15;92523.69;;;-2.40;84.77
64602;BME280;68371;42.630;23.192;2023-12-20T01:28:42;92513.69;;;-2.36;84.81
64602;BME280;68371;42.630;23.192;2023-12-20T01:31:10;92515.72;;;-2.33;84.62
64602;BME280;68371;42.630;23.192;2023-12-20T01:33:36;92512.91;;;-2.32;84.33
64602;BME280;68371;42.630;23.192;2023-12-20T01:36:04;92493.09;;;-2.36;84.19
64602;BME280;68371;42.630;23.192;2023-12-20T01:38:31;92499.03;;;-2.26;83.33
64602;BME280;68371;42.630;23.192;2023-12-20T01:40:57;92496.19;;;-2.34;83.37
64602;BME280;68371;42.630;23.192;2023-12-20T01:43:24;92494.91;;;-2.37;83.62
64602;BME280;68371;42.630;23.192;2023-12-20T01:45:51;92494.66;;;-2.30;83.45
64602;BME280;68371;42.630;23.192;2023-12-20T01:48:20;92488.47;;;-2.34;83.44
64602;BME280;68371;42.630;23.192;2023-12-20T01:50:47;92484.84;;;-2.38;84.41
64602;BME280;68371;42.630;23.192;2023-12-20T01:53:15;92471.47;;;-2.35;83.83
64602;BME280;68371;42.630;23.192;2023-12-20T01:55:43;92473.28;;;-2.36;83.21
64602;BME280;68371;42.630;23.192;2023-12-20T01:58:10;92473.78;;;-2.39;84.18
64602;BME280;68371;42.630;23.192;2023-12-20T02:00:38;92464.25;;;-2.44;83.77
64602;BME280;68371;42.630;23.192;2023-12-20T02:03:05;92457.31;;;-2.43;83.87
64602;BME280;68371;42.630;23.192;2023-12-20T02:05:35;92462.72;;;-2.39;83.48
64602;BME280;68371;42.630;23.192;2023-12-20T02:08:02;92460.94;;;-2.39;83.57
64602;BME280;68371;42.630;23.192;2023-12-20T02:10:29;92466.03;;;-2.54;83.87
64602;BME280;68371;42.630;23.192;2023-12-20T02:12:56;92458.03;;;-2.58;84.16
64602;BME280;68371;42.630;23.192;2023-12-20T02:15:23;92450.59;;;-2.54;84.08
64602;BME280;68371;42.630;23.192;2023-12-20T02:17:50;92444.94;;;-2.51;84.04
64602;BME280;68371;42.630;23.192;2023-12-20T02:20:17;92436.72;;;-2.53;84.40
64602;BME280;68371;42.630;23.192;2023-12-20T02:22:45;92432.09;;;-2.46;83.78
64602;BME280;68371;42.630;23.192;2023-12-20T02:25:12;92435.44;;;-2.51;83.52
64602;BME280;68371;42.630;23.192;2023-12-20T02:27:39;92424.09;;;-2.55;83.60
64602;BME280;68371;42.630;23.192;2023-12-20T02:30:07;92433.34;;;-2.54;83.42
64602;BME280;68371;42.630;23.192;2023-12-20T02:32:33;92422.00;;;-2.63;83.79
64602;BME280;68371;42.630;23.192;2023-12-20T02:35:00;92420.97;;;-2.62;84.42
64602;BME280;68371;42.630;23.192;2023-12-20T02:37:27;92418.13;;;-2.66;84.71
64602;BME280;68371;42.630;23.192;2023-12-20T02:39:55;92408.34;;;-2.64;84.51
64602;BME280;68371;42.630;23.192;2023-12-20T02:42:22;92412.22;;;-2.66;84.39
64602;BME280;68371;42.630;23.192;2023-12-20T02:44:48;92420.94;;;-2.72;84.71
64602;BME280;68371;42.630;23.192;2023-12-20T02:47:15;92422.50;;;-2.71;84.93
64602;BME280;68371;42.630;23.192;2023-12-20T02:49:42;92420.69;;;-2.71;85.39
64602;BME280;68371;42.630;23.192;2023-12-20T02:52:09;92424.47;;;-2.94;85.77
64602;BME280;68371;42.630;23.192;2023-12-20T02:54:36;92421.16;;;-2.89;85.65
64602;BME280;68371;42.630;23.192;2023-12-20T02:57:04;92419.56;;;-3.00;85.98
64602;BME280;68371;42.630;23.192;2023-12-20T02:59:30;92418.50;;;-3.10;86.00
64602;BME280;68371;42.630;23.192;2023-12-20T03:01:57;92418.03;;;-3.02;86.58
64602;BME280;68371;42.630;23.192;2023-12-20T03:04:24;92423.69;;;-2.99;86.79
64602;BME280;68371;42.630;23.192;2023-12-20T03:06:51;92419.06;;;-2.97;86.46
64602;BME280;68371;42.630;23.192;2023-12-20T03:09:17;92413.69;;;-2.96;86.40
64602;BME280;68371;42.630;23.192;2023-12-20T03:11:44;92418.31;;;-2.98;85.74
64602;BME280;68371;42.630;23.192;2023-12-20T03:14:12;92415.22;;;-3.00;86.03
64602;BME280;68371;42.630;23.192;2023-12-20T03:16:39;92418.81;;;-2.91;85.54
64602;BME280;68371;42.630;23.192;2023-12-20T03:19:05;92416.53;;;-2.87;85.70
64602;BME280;68371;42.630;23.192;2023-12-20T03:21:32;92414.97;;;-2.88;85.15
64602;BME280;68371;42.630;23.192;2023-12-20T03:23:59;92409.59;;;-2.87;85.67
64602;BME280;68371;42.630;23.192;2023-12-20T03:26:25;92399.56;;;-2.83;85.10
64602;BME280;68371;42.630;23.192;2023-12-20T03:28:52;92395.97;;;-2.87;85.30
64602;BME280;68371;42.630;23.192;2023-12-20T03:31:20;92393.88;;;-2.90;85.24
64602;BME280;68371;42.630;23.192;2023-12-20T03:33:47;92393.41;;;-2.87;85.86
64602;BME280;68371;42.630;23.192;2023-12-20T03:36:14;92389.00;;;-2.87;85.75
64602;BME280;68371;42.630;23.192;2023-12-20T03:38:40;92383.38;;;-2.84;85.10
64602;BME280;68371;42.630;23.192;2023-12-20T03:41:07;92384.41;;;-2.85;85.06
64602;BME280;68371;42.630;23.192;2023-12-20T03:43:34;92379.50;;;-2.91;85.45
64602;BME280;68371;42.630;23.192;2023-12-20T03:46:01;92381.56;;;-2.93;85.14
64602;BME280;68371;42.630;23.192;2023-12-20T03:48:30;92393.63;;;-2.94;84.50
64602;BME280;68371;42.630;23.192;2023-12-20T03:50:57;92387.69;;;-2.94;85.44
64602;BME280;68371;42.630;23.192;2023-12-20T03:53:24;92389.22;;;-3.04;85.81
64602;BME280;68371;42.630;23.192;2023-12-20T03:55:50;92387.44;;;-2.98;85.78
64602;BME280;68371;42.630;23.192;2023-12-20T03:58:17;92384.81;;;-3.13;85.19
64602;BME280;68371;42.630;23.192;2023-12-20T04:00:44;92383.72;;;-3.23;85.70
64602;BME280;68371;42.630;23.192;2023-12-20T04:03:10;92380.44;;;-3.18;85.61
64602;BME280;68371;42.630;23.192;2023-12-20T04:05:40;92384.25;;;-3.20;86.15
64602;BME280;68371;42.630;23.192;2023-12-20T04:08:07;92384.03;;;-3.14;85.96
64602;BME280;68371;42.630;23.192;2023-12-20T04:10:34;92373.22;;;-3.21;85.80
64602;BME280;68371;42.630;23.192;2023-12-20T04:13:02;92368.59;;;-3.19;85.62
64602;BME280;68371;42.630;23.192;2023-12-20T04:15:29;92365.78;;;-3.12;84.95
64602;BME280;68371;42.630;23.192;2023-12-20T04:17:56;92365.56;;;-3.06;85.08
64602;BME280;68371;42.630;23.192;2023-12-20T04:20:23;92357.31;;;-3.18;85.54
64602;BME280;68371;42.630;23.192;2023-12-20T04:22:51;92365.50;;;-3.21;85.71
64602;BME280;68371;42.630;23.192;2023-12-20T04:25:17;92359.84;;;-3.23;85.88
64602;BME280;68371;42.630;23.192;2023-12-20T04:27:44;92360.84;;;-3.34;86.08
64602;BME280;68371;42.630;23.192;2023-12-20T04:30:11;92349.28;;;-3.32;85.84
64602;BME280;68371;42.630;23.192;2023-12-20T04:32:39;92358.03;;;-3.28;85.34
64602;BME280;68371;42.630;23.192;2023-12-20T04:35:06;92340.78;;;-3.37;85.72
64602;BME280;68371;42.630;23.192;2023-12-20T04:37:34;92342.56;;;-3.38;86.11
64602;BME280;68371;42.630;23.192;2023-12-20T04:40:02;92337.69;;;-3.39;86.44
64602;BME280;68371;42.630;23.192;2023-12-20T04:42:30;92338.69;;;-3.46;86.61
64602;BME280;68371;42.630;23.192;2023-12-20T04:44:57;92337.41;;;-3.43;87.05
64602;BME280;68371;42.630;23.192;2023-12-20T04:47:24;92334.06;;;-3.44;86.99
64602;BME280;68371;42.630;23.192;2023-12-20T04:49:50;92329.22;;;-3.35;86.33
64602;BME280;68371;42.630;23.192;2023-12-20T04:52:17;92336.72;;;-3.28;86.05
64602;BME280;68371;42.630;23.192;2023-12-20T04:54:44;92330.53;;;-3.27;85.66
64602;BME280;68371;42.630;23.192;2023-12-20T04:57:12;92324.56;;;-3.43;85.81
64602;BME280;68371;42.630;23.192;2023-12-20T04:59:39;92316.59;;;-3.42;88.84
64602;BME280;68371;42.630;23.192;2023-12-20T05:02:06;92322.63;;;-3.15;89.21
64602;BME280;68371;42.630;23.192;2023-12-20T05:04:33;92330.06;;;-3.09;86.06
64602;BME280;68371;42.630;23.192;2023-12-20T05:06:59;92322.63;;;-3.15;85.36
64602;BME280;68371;42.630;23.192;2023-12-20T05:09:26;92319.53;;;-3.17;84.86
64602;BME280;68371;42.630;23.192;2023-12-20T05:11:53;92315.38;;;-3.24;84.72
64602;BME280;68371;42.630;23.192;2023-12-20T05:14:21;92323.09;;;-3.24;84.58
64602;BME280;68371;42.630;23.192;2023-12-20T05:16:47;92320.50;;;-3.29;85.07
64602;BME280;68371;42.630;23.192;2023-12-20T05:19:14;92311.75;;;-3.33;84.86
64602;BME280;68371;42.630;23.192;2023-12-20T05:21:41;92305.59;;;-3.32;85.13
64602;BME280;68371;42.630;23.192;2023-12-20T05:24:07;92307.94;;;-3.30;85.72
64602;BME280;68371;42.630;23.192;2023-12-20T05:26:35;92303.59;;;-3.19;86.32
64602;BME280;68371;42.630;23.192;2023-12-20T05:29:02;92298.66;;;-3.36;86.09
64602;BME280;68371;42.630;23.192;2023-12-20T05:31:31;92304.34;;;-3.24;86.17
64602;BME280;68371;42.630;23.192;2023-12-20T05:33:57;92287.75;;;-3.59;85.23
64602;BME280;68371;42.630;23.192;2023-12-20T05:36:24;92187.09;;;-4.29;86.15
64602;BME280;68371;42.630;23.192;2023-12-20T05:38:51;92294.78;;;-3.44;85.21
64602;BME280;68371;42.630;23.192;2023-12-20T05:41:18;92299.41;;;-3.36;84.66
64602;BME280;68371;42.630;23.192;2023-12-20T05:43:47;92285.53;;;-3.40;84.72
64602;BME280;68371;42.630;23.192;2023-12-20T05:46:13;92293.25;;;-3.35;84.96
64602;BME280;68371;42.630;23.192;2023-12-20T05:48:41;92286.53;;;-3.46;83.67
64602;BME280;68371;42.630;23.192;2023-12-20T05:51:11;92288.06;;;-3.50;83.91
64602;BME280;68371;42.630;23.192;2023-12-20T05:53:38;92288.88;;;-3.45;84.72
64602;BME280;68371;42.630;23.192;2023-12-20T05:56:05;92280.63;;;-3.42;85.20
64602;BME280;68371;42.630;23.192;2023-12-20T05:58:32;92283.97;;;-3.41;85.18
64602;BME280;68371;42.630;23.192;2023-12-20T06:00:59;92279.84;;;-3.47;84.47
64602;BME280;68371;42.630;23.192;2023-12-20T06:03:25;92274.19;;;-3.49;84.33
64602;BME280;68371;42.630;23.192;2023-12-20T06:05:54;92273.16;;;-3.53;84.46
64602;BME280;68371;42.630;23.192;2023-12-20T06:08:20;92270.56;;;-3.58;85.26
64602;BME280;68371;42.630;23.192;2023-12-20T06:10:47;92244.53;;;-3.77;84.88
64602;BME280;68371;42.630;23.192;2023-12-20T06:13:14;92272.63;;;-3.55;84.94
64602;BME280;68371;42.630;23.192;2023-12-20T06:15:41;92275.22;;;-3.45;85.97
64602;BME280;68371;42.630;23.192;2023-12-20T06:18:07;92275.25;;;-3.40;84.68
64602;BME280;68371;42.630;23.192;2023-12-20T06:20:35;92269.31;;;-3.46;83.83
64602;BME280;68371;42.630;23.192;2023-12-20T06:23:03;92272.66;;;-3.50;84.01
64602;BME280;68371;42.630;23.192;2023-12-20T06:25:30;92273.91;;;-3.58;84.43
64602;BME280;68371;42.630;23.192;2023-12-20T06:27:57;92276.75;;;-3.54;84.60
64602;BME280;68371;42.630;23.192;2023-12-20T06:30:23;92275.47;;;-3.52;84.82
64602;BME280;68371;42.630;23.192;2023-12-20T06:32:50;92272.13;;;-3.52;85.12
64602;BME280;68371;42.630;23.192;2023-12-20T06:35:18;92270.34;;;-3.52;85.09
64602;BME280;68371;42.630;23.192;2023-12-20T06:37:44;92275.75;;;-3.48;85.23
64602;BME280;68371;42.630;23.192;2023-12-20T06:40:13;92269.06;;;-3.49;85.42
64602;BME280;68371;42.630;23.192;2023-12-20T06:42:40;92266.72;;;-3.51;86.20
64602;BME280;68371;42.630;23.192;2023-12-20T06:45:08;92264.94;;;-3.45;86.42
64602;BME280;68371;42.630;23.192;2023-12-20T06:47:35;92269.59;;;-3.42;86.54
64602;BME280;68371;42.630;23.192;2023-12-20T06:50:01;92273.72;;;-3.36;86.12
64602;BME280;68371;42.630;23.192;2023-12-20T06:52:28;92268.06;;;-3.38;85.75
64602;BME280;68371;42.630;23.192;2023-12-20T06:54:55;92268.59;;;-3.36;85.80
64602;BME280;68371;42.630;23.192;2023-12-20T06:57:23;92265.75;;;-3.39;86.24
64602;BME280;68371;42.630;23.192;2023-12-20T06:59:51;92266.03;;;-3.36;86.78
64602;BME280;68371;42.630;23.192;2023-12-20T07:02:18;92267.81;;;-3.42;86.73
64602;BME280;68371;42.630;23.192;2023-12-20T07:04:44;92258.53;;;-3.48;87.43
64602;BME280;68371;42.630;23.192;2023-12-20T07:07:11;92255.47;;;-3.45;87.93
64602;BME280;68371;42.630;23.192;2023-12-20T07:09:38;92257.53;;;-3.42;88.35
64602;BME280;68371;42.630;23.192;2023-12-20T07:12:08;92266.03;;;-3.31;88.05
64602;BME280;68371;42.630;23.192;2023-12-20T07:14:36;92251.31;;;-3.51;86.48
64602;BME280;68371;42.630;23.192;2023-12-20T07:17:03;92250.59;;;-3.41;86.97
64602;BME280;68371;42.630;23.192;2023-12-20T07:19:29;92235.16;;;-3.41;87.06
64602;BME280;68371;42.630;23.192;2023-12-20T07:21:57;92246.00;;;-3.18;87.43
64602;BME280;68371;42.630;23.192;2023-12-20T07:24:24;92236.53;;;-3.13;87.06
64602;BME280;68371;42.630;23.192;2023-12-20T07:26:50;92235.00;;;-3.04;86.99
64602;BME280;68371;42.630;23.192;2023-12-20T07:29:17;92240.41;;;-2.95;87.10
64602;BME280;68371;42.630;23.192;2023-12-20T07:31:45;92233.22;;;-2.93;87.33
64602;BME280;68371;42.630;23.192;2023-12-20T07:34:12;92239.66;;;-2.85;87.26
64602;BME280;68371;42.630;23.192;2023-12-20T07:36:39;92230.38;;;-2.86;87.47
64602;BME280;68371;42.630;23.192;2023-12-20T07:39:06;92236.56;;;-2.72;87.70
64602;BME280;68371;42.630;23.192;2023-12-20T07:41:33;92225.50;;;-2.62;88.09
64602;BME280;68371;42.630;23.192;2023-12-20T07:43:59;92225.78;;;-2.58;88.64
64602;BME280;68371;42.630;23.192;2023-12-20T07:46:26;92224.75;;;-2.52;88.85
64602;BME280;68371;42.630;23.192;2023-12-20T07:48:54;92228.59;;;-2.50;88.77
64602;BME280;68371;42.630;23.192;2023-12-20T07:51:21;92217.78;;;-2.42;89.57
64602;BME280;68371;42.630;23.192;2023-12-20T07:53:47;92226.25;;;-2.26;90.31
64602;BME280;68371;42.630;23.192;2023-12-20T07:56:15;92220.06;;;-2.14;90.16
64602;BME280;68371;42.630;23.192;2023-12-20T07:58:42;92223.13;;;-2.02;90.66
64602;BME280;68371;42.630;23.192;2023-12-20T08:01:10;92215.41;;;-2.02;91.58
64602;BME280;68371;42.630;23.192;2023-12-20T08:03:38;92208.91;;;-1.84;92.37
64602;BME280;68371;42.630;23.192;2023-12-20T08:06:06;92201.34;;;-1.60;92.13
64602;BME280;68371;42.630;23.192;2023-12-20T08:08:33;92201.00;;;-1.43;91.67
64602;BME280;68371;42.630;23.192;2023-12-20T08:10:59;92205.84;;;-1.31;90.08
64602;BME280;68371;42.630;23.192;2023-12-20T08:13:27;92205.81;;;-1.26;90.30
64602;BME280;68371;42.630;23.192;2023-12-20T08:15:55;92195.44;;;-1.16;90.28
64602;BME280;68371;42.630;23.192;2023-12-20T08:18:21;92198.44;;;-0.98;90.40
64602;BME280;68371;42.630;23.192;2023-12-20T08:20:48;92203.25;;;-0.87;90.06
64602;BME280;68371;42.630;23.192;2023-12-20T08:23:19;92193.13;;;-0.78;89.85
64602;BME280;68371;42.630;23.192;2023-12-20T08:25:47;92198.78;;;-0.76;89.61
64602;BME280;68371;42.630;23.192;2023-12-20T08:28:14;92192.78;;;-0.66;89.50
64602;BME280;68371;42.630;23.192;2023-12-20T08:30:41;92193.53;;;-0.61;88.98
64602;BME280;68371;42.630;23.192;2023-12-20T08:33:08;92193.19;;;-0.54;88.33
64602;BME280;68371;42.630;23.192;2023-12-20T08:35:38;92186.94;;;-0.48;88.07
64602;BME280;68371;42.630;23.192;2023-12-20T08:38:04;92179.22;;;-0.48;87.88
64602;BME280;68371;42.630;23.192;2023-12-20T08:40:32;92182.75;;;-0.38;87.65
64602;BME280;68371;42.630;23.192;2023-12-20T08:42:59;92177.75;;;-0.30;87.38
64602;BME280;68371;42.630;23.192;2023-12-20T08:45:26;92171.28;;;-0.27;87.16
64602;BME280;68371;42.630;23.192;2023-12-20T08:47:52;92177.69;;;-0.25;87.53
64602;BME280;68371;42.630;23.192;2023-12-20T08:50:19;92167.00;;;-0.13;87.34
64602;BME280;68371;42.630;23.192;2023-12-20T08:52:47;92162.31;;;-0.11;87.17
64602;BME280;68371;42.630;23.192;2023-12-20T08:55:14;92165.84;;;-0.02;86.82
64602;BME280;68371;42.630;23.192;2023-12-20T08:57:43;92155.16;;;0.10;87.45
64602;BME280;68371;42.630;23.192;2023-12-20T09:00:11;92155.72;;;0.26;88.45
64602;BME280;68371;42.630;23.192;2023-12-20T09:02:38;92150.28;;;0.28;88.65
64602;BME280;68371;42.630;23.192;2023-12-20T09:05:05;92146.44;;;0.25;89.25
64602;BME280;68371;42.630;23.192;2023-12-20T09:07:32;92141.91;;;0.36;89.26
64602;BME280;68371;42.630;23.192;2023-12-20T09:09:58;92123.28;;;0.39;89.00
64602;BME280;68371;42.630;23.192;2023-12-20T09:12:25;92128.03;;;0.51;89.59
64602;BME280;68371;42.630;23.192;2023-12-20T09:14:54;92126.34;;;0.60;90.52
64602;BME280;68371;42.630;23.192;2023-12-20T09:17:20;92110.06;;;0.59;91.46
64602;BME280;68371;42.630;23.192;2023-12-20T09:19:48;92097.97;;;0.74;90.76
64602;BME280;68371;42.630;23.192;2023-12-20T09:22:15;92088.97;;;0.71;91.25
64602;BME280;68371;42.630;23.192;2023-12-20T09:24:42;92089.34;;;0.78;91.68
64602;BME280;68371;42.630;23.192;2023-12-20T09:27:10;92070.72;;;0.63;87.11
64602;BME280;68371;42.630;23.192;2023-12-20T09:29:36;92065.16;;;0.88;88.35
64602;BME280;68371;42.630;23.192;2023-12-20T09:32:05;92061.06;;;1.01;86.83
64602;BME280;68371;42.630;23.192;2023-12-20T09:34:32;92051.34;;;1.12;86.19
64602;BME280;68371;42.630;23.192;2023-12-20T09:36:59;92049.72;;;1.30;83.73
64602;BME280;68371;42.630;23.192;2023-12-20T09:39:25;92048.22;;;1.43;84.02
64602;BME280;68371;42.630;23.192;2023-12-20T09:42:03;92040.16;;;1.58;83.54
64602;BME280;68371;42.630;23.192;2023-12-20T09:44:31;92037.09;;;1.84;81.55
64602;BME280;68371;42.630;23.192;2023-12-20T09:46:58;92030.59;;;2.23;80.24
64602;BME280;68371;42.630;23.192;2023-12-20T09:49:27;92020.56;;;2.44;79.68
64602;BME280;68371;42.630;23.192;2023-12-20T09:51:54;92013.03;;;2.78;77.92
64602;BME280;68371;42.630;23.192;2023-12-20T09:54:22;92008.03;;;3.13;75.90
64602;BME280;68371;42.630;23.192;2023-12-20T09:56:50;91990.50;;;3.19;74.84
64602;BME280;68371;42.630;23.192;2023-12-20T09:59:16;91977.44;;;3.33;73.58
64602;BME280;68371;42.630;23.192;2023-12-20T10:01:43;91993.59;;;3.70;72.89
64602;BME280;68371;42.630;23.192;2023-12-20T10:04:12;91991.47;;;3.89;72.42
64602;BME280;68371;42.630;23.192;2023-12-20T10:06:41;91991.97;;;4.09;71.15
64602;BME280;68371;42.630;23.192;2023-12-20T10:09:08;91992.91;;;4.30;70.57
64602;BME280;68371;42.630;23.192;2023-12-20T10:11:35;91977.31;;;4.65;69.25
64602;BME280;68371;42.630;23.192;2023-12-20T10:14:04;91972.94;;;5.04;67.30
64602;BME280;68371;42.630;23.192;2023-12-20T10:16:31;91979.38;;;5.54;67.05
64602;BME280;68371;42.630;23.192;2023-12-20T10:19:00;91988.78;;;5.76;66.19
64602;BME280;68371;42.630;23.192;2023-12-20T10:21:27;91980.81;;;6.02;65.47
64602;BME280;68371;42.630;23.192;2023-12-20T10:23:56;91978.09;;;6.19;65.05
64602;BME280;68371;42.630;23.192;2023-12-20T10:26:23;91962.19;;;6.12;65.05
64602;BME280;68371;42.630;23.192;2023-12-20T10:28:52;91972.91;;;6.19;65.47
64602;BME280;68371;42.630;23.192;2023-12-20T10:31:26;91959.16;;;6.31;63.67
64602;BME280;68371;42.630;23.192;2023-12-20T10:33:55;91965.50;;;6.42;63.96
64602;BME280;68371;42.630;23.192;2023-12-20T10:36:23;91962.06;;;6.51;63.60
64602;BME280;68371;42.630;23.192;2023-12-20T10:38:53;91961.63;;;6.49;63.92
64602;BME280;68371;42.630;23.192;2023-12-20T10:41:26;91962.13;;;6.63;63.66
64602;BME280;68371;42.630;23.192;2023-12-20T10:43:56;91940.06;;;6.73;62.33
64602;BME280;68371;42.630;23.192;2023-12-20T10:46:26;91944.00;;;6.79;62.51
64602;BME280;68371;42.630;23.192;2023-12-20T10:48:54;91950.75;;;6.80;62.39
64602;BME280;68371;42.630;23.192;2023-12-20T10:51:21;91941.84;;;6.81;62.78
64602;BME280;68371;42.630;23.192;2023-12-20T10:53:50;91934.59;;;6.99;62.55
64602;BME280;68371;42.630;23.192;2023-12-20T10:56:18;91929.94;;;7.05;64.04
64602;BME280;68371;42.630;23.192;2023-12-20T10:58:48;91928.53;;;7.32;61.07
64602;BME280;68371;42.630;23.192;2023-12-20T11:01:16;91920.50;;;7.49;60.05
64602;BME280;68371;42.630;23.192;2023-12-20T11:03:45;91911.47;;;7.59;59.39
64602;BME280;68371;42.630;23.192;2023-12-20T11:06:21;91914.94;;;7.75;58.72
64602;BME280;68371;42.630;23.192;2023-12-20T11:08:59;91909.47;;;7.93;57.17
64602;BME280;68371;42.630;23.192;2023-12-20T11:11:38;91906.81;;;8.17;55.88
64602;BME280;68371;42.630;23.192;2023-12-20T11:14:14;91902.81;;;8.36;55.17
64602;BME280;68371;42.630;23.192;2023-12-20T11:16:42;91882.63;;;8.49;55.14
64602;BME280;68371;42.630;23.192;2023-12-20T11:19:11;91888.66;;;8.65;53.96
64602;BME280;68371;42.630;23.192;2023-12-20T11:21:39;91877.38;;;8.77;55.08
64602;BME280;68371;42.630;23.192;2023-12-20T11:24:06;91869.84;;;8.91;53.93
64602;BME280;68371;42.630;23.192;2023-12-20T11:26:33;91868.50;;;8.97;53.02
64602;BME280;68371;42.630;23.192;2023-12-20T11:29:31;91855.59;;;9.05;53.19
64602;BME280;68371;42.630;23.192;2023-12-20T11:31:59;91847.22;;;9.15;52.80
64602;BME280;68371;42.630;23.192;2023-12-20T11:34:27;91849.56;;;9.20;53.43
64602;BME280;68371;42.630;23.192;2023-12-20T11:36:57;91842.47;;;9.36;52.87
64602;BME280;68371;42.630;23.192;2023-12-20T11:39:25;91838.47;;;9.42;53.07
64602;BME280;68371;42.630;23.192;2023-12-20T11:41:55;91834.34;;;9.41;52.77
64602;BME280;68371;42.630;23.192;2023-12-20T11:44:23;91827.41;;;9.49;52.32
64602;BME280;68371;42.630;23.192;2023-12-20T11:46:52;91836.63;;;9.43;51.73
64602;BME280;68371;42.630;23.192;2023-12-20T11:49:23;91832.38;;;9.54;51.63
64602;BME280;68371;42.630;23.192;2023-12-20T11:51:50;91824.16;;;9.56;51.21
64602;BME280;68371;42.630;23.192;2023-12-20T11:54:17;91812.84;;;9.52;50.83
64602;BME280;68371;42.630;23.192;2023-12-20T11:56:44;91818.94;;;9.56;49.87
64602;BME280;68371;42.630;23.192;2023-12-20T11:59:11;91807.56;;;9.68;50.78
64602;BME280;68371;42.630;23.192;2023-12-20T12:01:38;91811.28;;;9.67;50.02
64602;BME280;68371;42.630;23.192;2023-12-20T12:04:06;91798.75;;;9.76;49.50
64602;BME280;68371;42.630;23.192;2023-12-20T12:06:33;91797.16;;;9.71;49.89
64602;BME280;68371;42.630;23.192;2023-12-20T12:09:00;91793.34;;;9.88;49.37
64602;BME280;68371;42.630;23.192;2023-12-20T12:11:29;91781.69;;;9.86;49.04
64602;BME280;68371;42.630;23.192;2023-12-20T12:13:56;91777.13;;;10.02;49.30
64602;BME280;68371;42.630;23.192;2023-12-20T12:16:23;91770.34;;;10.01;49.15
64602;BME280;68371;42.630;23.192;2023-12-20T12:18:56;91772.72;;;10.06;48.89
64602;BME280;68371;42.630;23.192;2023-12-20T12:21:24;91715.53;;;9.57;49.68
64602;BME280;68371;42.630;23.192;2023-12-20T12:23:51;91762.78;;;9.96;49.61
64602;BME280;68371;42.630;23.192;2023-12-20T12:26:18;91762.63;;;9.89;50.00
64602;BME280;68371;42.630;23.192;2023-12-20T12:28:45;91762.06;;;9.99;49.85
64602;BME280;68371;42.630;23.192;2023-12-20T12:31:15;91767.47;;;10.06;49.05
64602;BME280;68371;42.630;23.192;2023-12-20T12:33:42;91762.00;;;9.95;49.80
64602;BME280;68371;42.630;23.192;2023-12-20T12:36:09;91761.25;;;9.75;49.90
64602;BME280;68371;42.630;23.192;2023-12-20T12:38:38;91759.88;;;9.62;50.67
64602;BME280;68371;42.630;23.192;2023-12-20T12:41:04;91761.56;;;9.54;51.32
64602;BME280;68371;42.630;23.192;2023-12-20T12:43:32;91764.31;;;9.42;51.35
64602;BME280;68371;42.630;23.192;2023-12-20T12:45:59;91767.81;;;9.30;52.01
64602;BME280;68371;42.630;23.192;2023-12-20T12:48:26;91769.78;;;9.17;51.63
64602;BME280;68371;42.630;23.192;2023-12-20T12:50:53;91765.19;;;9.30;52.34
64602;BME280;68371;42.630;23.192;2023-12-20T12:53:24;91764.63;;;9.21;52.45